createdAt,value
2018-08-20T00:02:27.920Z,3.40
2018-08-20T00:04:58.896Z,3.30
2018-08-20T00:07:26.233Z,4.00
2018-08-20T00:09:54.496Z,3.90
2018-08-20T00:12:21.705Z,3.70
2018-08-20T00:14:49.018Z,3.90
2018-08-20T00:17:16.403Z,4.33
2018-08-20T00:19:43.705Z,4.07
2018-08-20T00:22:10.982Z,3.40
2018-08-20T00:24:38.229Z,4.33
2018-08-20T00:27:05.570Z,4.77
2018-08-20T00:29:36.058Z,3.73
2018-08-20T00:32:03.487Z,3.73
2018-08-20T00:34:30.767Z,3.60
2018-08-20T00:36:58.064Z,4.30
2018-08-20T00:39:25.479Z,3.40
2018-08-20T00:41:52.852Z,4.03
2018-08-20T00:44:20.154Z,4.10
2018-08-20T00:46:47.417Z,3.77
2018-08-20T00:49:15.729Z,4.40
2018-08-20T00:51:43.043Z,3.73
2018-08-20T00:54:10.270Z,3.57
2018-08-20T00:56:37.529Z,4.03
2018-08-20T00:59:04.823Z,3.53
2018-08-20T01:01:32.532Z,3.97
2018-08-20T01:04:00.434Z,3.10
2018-08-20T01:06:27.737Z,3.83
2018-08-20T01:08:55.003Z,3.70
2018-08-20T01:11:22.287Z,3.50
2018-08-20T01:13:49.695Z,4.10
2018-08-20T01:16:16.957Z,3.30
2018-08-20T01:18:44.254Z,3.60
2018-08-20T01:21:11.749Z,3.40
2018-08-20T01:23:39.012Z,3.97
2018-08-20T01:26:06.304Z,3.67
2018-08-20T01:28:33.594Z,3.20
2018-08-20T01:31:00.918Z,3.93
2018-08-20T01:33:28.273Z,3.83
2018-08-20T01:35:55.619Z,3.70
2018-08-20T01:38:23.231Z,3.10
2018-08-20T01:40:50.497Z,3.33
2018-08-20T01:43:17.828Z,3.60
2018-08-20T01:45:45.348Z,4.03
2018-08-20T01:48:12.687Z,4.27
2018-08-20T01:50:39.999Z,3.70
2018-08-20T01:53:07.297Z,3.80
2018-08-20T01:55:34.564Z,3.57
2018-08-20T01:58:01.859Z,3.97
2018-08-20T02:00:29.109Z,4.00
2018-08-20T02:03:00.924Z,4.87
2018-08-20T02:05:28.349Z,3.90
2018-08-20T02:07:55.661Z,3.80
2018-08-20T02:10:23.000Z,3.80
2018-08-20T02:12:50.236Z,3.40
2018-08-20T02:15:17.550Z,3.90
2018-08-20T02:17:44.899Z,3.70
2018-08-20T02:20:12.218Z,3.73
2018-08-20T02:22:39.497Z,3.40
2018-08-20T02:25:06.841Z,4.00
2018-08-20T02:27:34.139Z,3.47
2018-08-20T02:30:01.459Z,3.87
2018-08-20T02:32:28.781Z,3.90
2018-08-20T02:34:56.027Z,4.20
2018-08-20T02:37:25.557Z,3.90
2018-08-20T02:39:52.923Z,4.70
2018-08-20T02:42:20.286Z,3.83
2018-08-20T02:44:47.595Z,4.50
2018-08-20T02:47:14.925Z,3.43
2018-08-20T02:49:42.199Z,3.80
2018-08-20T02:52:09.503Z,3.63
2018-08-20T02:54:36.800Z,3.63
2018-08-20T02:57:04.118Z,3.40
2018-08-20T02:59:31.432Z,4.40
2018-08-20T03:01:58.806Z,3.80
2018-08-20T03:04:26.148Z,3.20
2018-08-20T03:06:53.423Z,4.07
2018-08-20T03:09:20.742Z,3.47
2018-08-20T03:11:48.090Z,4.13
2018-08-20T03:14:15.440Z,3.70
2018-08-20T03:16:42.682Z,3.47
2018-08-20T03:19:10.263Z,4.80
2018-08-20T03:21:37.510Z,4.40
2018-08-20T03:25:29.402Z,4.10
2018-08-20T03:27:56.740Z,4.33
2018-08-20T03:30:23.970Z,4.60
2018-08-20T03:32:51.299Z,4.47
2018-08-20T03:35:18.643Z,4.17
2018-08-20T03:37:45.891Z,4.40
2018-08-20T03:40:13.138Z,4.47
2018-08-20T03:42:40.601Z,4.30
2018-08-20T03:45:08.613Z,3.97
2018-08-20T03:47:35.969Z,4.13
2018-08-20T03:50:04.134Z,5.20
2018-08-20T03:52:31.404Z,4.30
2018-08-20T03:54:58.757Z,4.40
2018-08-20T03:57:26.510Z,4.80
2018-08-20T03:59:54.330Z,4.37
2018-08-20T04:02:21.925Z,5.17
2018-08-20T04:04:49.214Z,3.83
2018-08-20T04:07:16.432Z,4.73
2018-08-20T04:09:43.699Z,3.80
2018-08-20T04:12:11.033Z,4.50
2018-08-20T04:14:38.369Z,4.47
2018-08-20T04:17:05.753Z,5.03
2018-08-20T04:19:32.978Z,5.17
2018-08-20T04:22:00.235Z,4.63
2018-08-20T04:24:27.469Z,4.47
2018-08-20T04:26:54.798Z,4.80
2018-08-20T04:29:22.204Z,4.20
2018-08-20T04:31:49.506Z,4.67
2018-08-20T04:34:18.335Z,4.67
2018-08-20T04:36:45.746Z,4.40
2018-08-20T04:39:12.987Z,4.10
2018-08-20T04:41:40.305Z,4.43
2018-08-20T04:44:07.944Z,5.70
2018-08-20T04:46:35.283Z,4.90
2018-08-20T04:49:02.583Z,5.83
2018-08-20T04:51:29.998Z,5.93
2018-08-20T04:53:57.191Z,4.37
2018-08-20T04:56:25.047Z,4.13
2018-08-20T04:58:52.442Z,4.80
2018-08-20T05:01:19.674Z,5.17
2018-08-20T05:03:47.257Z,5.37
2018-08-20T05:06:14.503Z,4.63
2018-08-20T05:08:41.841Z,5.07
2018-08-20T05:11:09.090Z,4.37
2018-08-20T05:13:36.308Z,5.27
2018-08-20T05:16:03.569Z,4.43
2018-08-20T05:18:30.895Z,4.20
2018-08-20T05:20:58.195Z,5.50
2018-08-20T05:23:25.477Z,5.10
2018-08-20T05:27:17.357Z,5.30
2018-08-20T05:29:48.879Z,8.30
2018-08-20T05:32:16.318Z,6.17
2018-08-20T05:34:43.591Z,7.87
2018-08-20T05:37:10.888Z,5.10
2018-08-20T05:39:38.214Z,13.77
2018-08-20T05:42:05.639Z,5.80
2018-08-20T05:44:32.956Z,5.43
2018-08-20T05:47:00.279Z,6.33
2018-08-20T05:49:27.665Z,4.70
2018-08-20T05:51:55.053Z,5.30
2018-08-20T05:54:22.361Z,5.57
2018-08-20T05:56:49.751Z,5.33
2018-08-20T05:59:17.148Z,6.00
2018-08-20T06:01:44.493Z,6.70
2018-08-20T06:04:11.749Z,4.73
2018-08-20T06:06:38.982Z,5.40
2018-08-20T06:09:07.534Z,5.13
2018-08-20T06:11:34.830Z,5.83
2018-08-20T06:14:02.232Z,5.10
2018-08-20T06:16:29.554Z,4.97
2018-08-20T06:18:57.049Z,5.70
2018-08-20T06:21:24.391Z,4.70
2018-08-20T06:23:51.702Z,6.27
2018-08-20T06:26:19.088Z,5.90
2018-08-20T06:28:46.430Z,5.10
2018-08-20T06:31:13.685Z,5.60
2018-08-20T06:33:40.983Z,5.60
2018-08-20T06:36:08.244Z,5.60
2018-08-20T06:38:35.565Z,6.37
2018-08-20T06:41:02.918Z,5.27
2018-08-20T06:43:30.178Z,5.73
2018-08-20T06:45:57.458Z,5.90
2018-08-20T06:48:24.733Z,6.07
2018-08-20T06:50:51.977Z,6.20
2018-08-20T06:53:19.315Z,5.20
2018-08-20T06:55:46.687Z,4.63
2018-08-20T06:58:13.893Z,5.50
2018-08-20T07:00:41.159Z,4.93
2018-08-20T07:03:08.551Z,7.07
2018-08-20T07:05:35.832Z,5.50
2018-08-20T07:08:03.157Z,5.90
2018-08-20T07:10:36.146Z,5.07
2018-08-20T07:13:14.679Z,4.73
2018-08-20T07:15:42.088Z,4.80
2018-08-20T07:18:09.644Z,4.53
2018-08-20T07:20:36.963Z,4.93
2018-08-20T07:23:04.274Z,4.00
2018-08-20T07:25:31.537Z,3.60
2018-08-20T07:27:58.839Z,3.50
2018-08-20T07:30:26.040Z,4.20
2018-08-20T07:32:53.368Z,3.57
2018-08-20T07:35:20.588Z,3.17
2018-08-20T07:37:47.821Z,3.67
2018-08-20T07:40:16.788Z,3.90
2018-08-20T07:42:44.254Z,4.40
2018-08-20T07:45:11.525Z,3.53
2018-08-20T07:47:38.824Z,3.13
2018-08-20T07:50:06.209Z,3.50
2018-08-20T07:52:33.517Z,3.47
2018-08-20T07:55:00.877Z,3.80
2018-08-20T07:57:28.171Z,4.30
2018-08-20T07:59:55.523Z,4.40
2018-08-20T08:02:22.868Z,3.90
2018-08-20T08:04:50.148Z,4.73
2018-08-20T08:07:17.448Z,4.20
2018-08-20T08:09:44.805Z,4.27
2018-08-20T08:12:12.113Z,4.10
2018-08-20T08:14:39.448Z,4.37
2018-08-20T08:17:06.782Z,3.93
2018-08-20T08:19:34.194Z,4.50
2018-08-20T08:22:01.886Z,3.90
2018-08-20T08:25:31.916Z,4.03
2018-08-20T08:27:59.249Z,4.10
2018-08-20T08:30:26.592Z,4.27
2018-08-20T08:32:53.850Z,4.17
2018-08-20T08:35:21.186Z,3.73
2018-08-20T08:37:48.696Z,3.80
2018-08-20T08:40:16.073Z,3.57
2018-08-20T08:42:43.589Z,3.83
2018-08-20T08:45:14.942Z,4.37
2018-08-20T08:47:42.657Z,3.47
2018-08-20T08:50:09.962Z,4.60
2018-08-20T08:52:37.240Z,3.27
2018-08-20T08:55:05.228Z,4.20
2018-08-20T08:57:32.439Z,4.43
2018-08-20T08:59:59.784Z,3.47
2018-08-20T09:02:27.124Z,4.17
2018-08-20T09:04:54.506Z,4.00
2018-08-20T09:07:21.752Z,3.97
2018-08-20T09:09:48.981Z,3.40
2018-08-20T09:12:16.252Z,3.53
2018-08-20T09:14:43.598Z,4.20
2018-08-20T09:17:10.871Z,3.03
2018-08-20T09:19:38.216Z,3.90
2018-08-20T09:22:05.712Z,4.20
2018-08-20T09:24:33.015Z,4.03
2018-08-20T09:27:00.313Z,3.23
2018-08-20T09:29:27.583Z,4.20
2018-08-20T09:31:54.880Z,4.20
2018-08-20T09:34:22.475Z,3.30
2018-08-20T09:36:49.788Z,3.90
2018-08-20T09:39:17.072Z,3.90
2018-08-20T09:41:44.356Z,3.83
2018-08-20T09:44:11.655Z,4.57
2018-08-20T09:46:38.921Z,4.00
2018-08-20T09:49:06.218Z,3.70
2018-08-20T09:51:34.293Z,3.70
2018-08-20T09:54:02.065Z,3.27
2018-08-20T09:56:29.498Z,2.80
2018-08-20T09:58:56.913Z,5.80
2018-08-20T10:01:24.228Z,6.50
2018-08-20T10:03:51.617Z,4.33
2018-08-20T10:06:18.920Z,4.20
2018-08-20T10:08:46.205Z,3.50
2018-08-20T10:11:13.655Z,4.10
2018-08-20T10:13:41.665Z,3.60
2018-08-20T10:16:09.167Z,4.10
2018-08-20T10:18:37.032Z,3.20
2018-08-20T10:21:04.377Z,3.50
2018-08-20T10:23:31.699Z,3.90
2018-08-20T10:25:59.031Z,3.60
2018-08-20T10:28:26.363Z,3.20
2018-08-20T10:30:53.747Z,3.60
2018-08-20T10:33:21.000Z,3.30
2018-08-20T10:35:48.293Z,3.47
2018-08-20T10:38:15.479Z,3.20
2018-08-20T10:40:42.807Z,3.30
2018-08-20T10:43:10.097Z,3.97
2018-08-20T10:45:43.090Z,3.87
2018-08-20T10:48:10.560Z,3.13
2018-08-20T10:50:37.893Z,2.63
2018-08-20T10:53:05.489Z,3.27
2018-08-20T10:55:32.816Z,2.90
2018-08-20T10:58:00.077Z,3.47
2018-08-20T11:00:27.404Z,3.50
2018-08-20T11:02:54.696Z,3.37
2018-08-20T11:05:22.129Z,3.43
2018-08-20T11:07:49.444Z,2.97
2018-08-20T11:10:16.792Z,3.20
2018-08-20T11:12:44.133Z,2.97
2018-08-20T11:15:11.729Z,3.37
2018-08-20T11:17:39.112Z,3.20
2018-08-20T11:20:10.624Z,2.90
2018-08-20T11:22:37.950Z,3.27
2018-08-20T11:25:06.094Z,3.53
2018-08-20T11:27:33.459Z,3.53
2018-08-20T11:30:00.726Z,8.50
2018-08-20T11:32:28.093Z,6.70
2018-08-20T11:34:55.506Z,2.67
2018-08-20T11:37:23.209Z,3.20
2018-08-20T11:39:50.463Z,3.13
2018-08-20T11:42:17.748Z,3.40
2018-08-20T11:44:57.912Z,2.83
2018-08-20T11:47:25.255Z,3.10
2018-08-20T11:49:52.587Z,4.00
2018-08-20T11:52:19.845Z,2.93
2018-08-20T11:54:47.313Z,3.30
2018-08-20T11:57:14.615Z,3.37
2018-08-20T11:59:41.937Z,3.67
2018-08-20T12:02:09.479Z,4.40
2018-08-20T12:04:36.826Z,3.27
2018-08-20T12:07:04.145Z,3.90
2018-08-20T12:09:31.503Z,3.10
2018-08-20T12:11:58.984Z,3.33
2018-08-20T12:14:26.275Z,2.70
2018-08-20T12:16:53.591Z,2.73
2018-08-20T12:19:20.833Z,2.90
2018-08-20T12:21:48.146Z,3.27
2018-08-20T12:24:15.495Z,3.40
2018-08-20T12:26:42.854Z,3.47
2018-08-20T12:29:10.906Z,3.37
2018-08-20T12:31:38.171Z,3.13
2018-08-20T12:34:05.468Z,3.27
2018-08-20T12:36:32.762Z,3.33
2018-08-20T12:39:00.122Z,3.27
2018-08-20T12:41:27.410Z,3.50
2018-08-20T12:43:54.640Z,2.80
2018-08-20T12:46:21.920Z,3.70
2018-08-20T12:48:50.919Z,4.10
2018-08-20T12:51:18.847Z,3.23
2018-08-20T12:53:46.208Z,2.40
2018-08-20T12:56:13.557Z,3.30
2018-08-20T12:58:52.213Z,3.93
2018-08-20T13:01:19.628Z,3.63
2018-08-20T13:03:47.498Z,3.30
2018-08-20T13:06:14.761Z,3.07
2018-08-20T13:08:42.091Z,3.10
2018-08-20T13:11:09.428Z,4.40
2018-08-20T13:13:36.664Z,3.00
2018-08-20T13:16:04.101Z,3.50
2018-08-20T13:18:32.050Z,3.30
2018-08-20T13:20:59.393Z,3.83
2018-08-20T13:23:26.676Z,2.80
2018-08-20T13:25:54.125Z,3.10
2018-08-20T13:28:21.433Z,3.57
2018-08-20T13:30:48.754Z,4.10
2018-08-20T13:33:16.230Z,3.13
2018-08-20T13:35:43.596Z,3.17
2018-08-20T13:38:10.912Z,4.03
2018-08-20T13:40:38.345Z,2.97
2018-08-20T13:43:06.041Z,4.43
2018-08-20T13:45:33.429Z,3.30
2018-08-20T13:48:00.874Z,3.00
2018-08-20T13:50:28.194Z,4.00
2018-08-20T13:52:55.556Z,3.80
2018-08-20T13:55:22.940Z,3.37
2018-08-20T13:57:50.305Z,3.17
2018-08-20T14:00:18.810Z,3.00
2018-08-20T14:02:46.202Z,2.70
2018-08-20T14:05:14.462Z,3.90
2018-08-20T14:07:42.482Z,3.17
2018-08-20T14:10:10.898Z,3.43
2018-08-20T14:12:39.067Z,3.60
2018-08-20T14:15:07.227Z,3.77
2018-08-20T14:17:34.609Z,3.00
2018-08-20T14:20:02.027Z,4.50
2018-08-20T14:22:29.368Z,3.13
2018-08-20T14:24:56.754Z,2.90
2018-08-20T14:27:24.214Z,3.30
2018-08-20T14:29:51.536Z,3.50
2018-08-20T14:32:18.799Z,4.73
2018-08-20T14:34:46.147Z,3.20
2018-08-20T14:37:13.504Z,3.50
2018-08-20T14:39:40.787Z,3.23
2018-08-20T14:42:08.217Z,4.07
2018-08-20T14:44:35.609Z,4.00
2018-08-20T14:47:03.050Z,2.93
2018-08-20T14:49:30.416Z,3.70
2018-08-20T14:51:57.849Z,3.03
2018-08-20T14:54:25.746Z,3.40
2018-08-20T14:56:53.080Z,3.30
2018-08-20T14:59:20.442Z,3.00
2018-08-20T15:01:47.700Z,2.90
2018-08-20T15:04:15.007Z,3.30
2018-08-20T15:06:56.832Z,3.33
2018-08-20T15:09:24.843Z,3.43
2018-08-20T15:11:52.265Z,3.00
2018-08-20T15:14:19.550Z,3.50
2018-08-20T15:16:46.862Z,3.13
2018-08-20T15:19:14.222Z,2.60
2018-08-20T15:21:41.518Z,3.43
2018-08-20T15:24:08.776Z,3.40
2018-08-20T15:26:36.081Z,3.33
2018-08-20T15:29:03.405Z,3.40
2018-08-20T15:31:30.682Z,3.20
2018-08-20T15:33:58.015Z,3.10
2018-08-20T15:36:25.290Z,3.53
2018-08-20T15:38:52.807Z,3.43
2018-08-20T15:41:20.065Z,3.50
2018-08-20T15:43:47.360Z,5.57
2018-08-20T15:46:14.710Z,3.70
2018-08-20T15:48:41.953Z,3.33
2018-08-20T15:51:09.303Z,3.67
2018-08-20T15:53:36.695Z,3.57
2018-08-20T15:56:04.061Z,3.50
2018-08-20T15:58:31.485Z,2.90
2018-08-20T16:00:58.754Z,3.27
2018-08-20T16:03:26.020Z,3.23
2018-08-20T16:05:53.327Z,3.47
2018-08-20T16:08:20.655Z,3.80
2018-08-20T16:10:47.990Z,3.23
2018-08-20T16:13:15.210Z,3.30
2018-08-20T16:15:42.496Z,4.13
2018-08-20T16:18:09.785Z,3.23
2018-08-20T16:20:37.064Z,2.70
2018-08-20T16:23:04.752Z,3.23
2018-08-20T16:25:31.984Z,3.10
2018-08-20T16:27:59.311Z,3.03
2018-08-20T16:30:26.604Z,2.63
2018-08-20T16:32:53.919Z,2.70
2018-08-20T16:35:21.185Z,3.07
2018-08-20T16:37:48.405Z,3.50
2018-08-20T16:40:15.733Z,3.40
2018-08-20T16:42:43.077Z,2.80
2018-08-20T16:45:10.442Z,3.07
2018-08-20T16:47:38.025Z,2.80
2018-08-20T16:50:06.919Z,2.83
2018-08-20T16:52:34.367Z,4.33
2018-08-20T16:55:01.694Z,2.50
2018-08-20T16:57:29.138Z,2.40
2018-08-20T16:59:56.409Z,2.93
2018-08-20T17:02:27.544Z,2.90
2018-08-20T17:04:54.832Z,2.40
2018-08-20T17:07:22.154Z,2.40
2018-08-20T17:09:49.405Z,3.20
2018-08-20T17:12:16.704Z,2.17
2018-08-20T17:14:43.991Z,3.30
2018-08-20T17:17:11.291Z,2.73
2018-08-20T17:19:38.690Z,2.50
2018-08-20T17:22:06.162Z,2.87
2018-08-20T17:24:37.521Z,2.70
2018-08-20T17:27:04.885Z,2.90
2018-08-20T17:29:32.140Z,2.77
2018-08-20T17:32:00.925Z,2.27
2018-08-20T17:34:28.197Z,3.07
2018-08-20T17:36:55.584Z,2.20
2018-08-20T17:39:30.765Z,2.70
2018-08-20T17:42:00.521Z,3.10
2018-08-20T17:44:35.148Z,2.60
2018-08-20T17:49:54.633Z,2.87
2018-08-20T17:52:25.947Z,2.40
2018-08-20T17:54:53.223Z,2.40
2018-08-20T17:57:20.539Z,2.83
2018-08-20T17:59:47.805Z,2.60
2018-08-20T18:02:19.767Z,3.00
2018-08-20T18:04:48.430Z,3.23
2018-08-20T18:07:15.720Z,2.60
2018-08-20T18:09:43.044Z,2.40
2018-08-20T18:12:10.436Z,2.57
2018-08-20T18:14:37.633Z,2.23
2018-08-20T18:17:04.976Z,3.50
2018-08-20T18:19:32.180Z,2.60
2018-08-20T18:21:59.454Z,2.50
2018-08-20T18:24:26.782Z,2.50
2018-08-20T18:26:55.387Z,2.63
2018-08-20T18:29:22.624Z,2.57
2018-08-20T18:31:51.472Z,1.73
2018-08-20T18:34:19.341Z,2.77
2018-08-20T18:36:46.702Z,2.80
2018-08-20T18:39:14.151Z,2.37
2018-08-20T18:42:13.208Z,2.03
2018-08-20T18:44:40.555Z,2.50
2018-08-20T18:47:08.934Z,2.40
2018-08-20T18:49:45.778Z,1.97
2018-08-20T18:52:13.479Z,2.67
2018-08-20T18:54:47.785Z,2.73
2018-08-20T18:57:15.877Z,3.30
2018-08-20T18:59:43.267Z,2.40
2018-08-20T19:02:24.482Z,2.00
2018-08-20T19:04:51.784Z,2.33
2018-08-20T19:07:19.089Z,3.20
2018-08-20T19:09:47.445Z,2.67
2018-08-20T19:12:14.935Z,1.90
2018-08-20T19:14:42.266Z,2.20
2018-08-20T19:17:15.389Z,2.30
2018-08-20T19:19:46.761Z,3.10
2018-08-20T19:22:19.546Z,2.97
2018-08-20T19:24:46.899Z,2.30
2018-08-20T19:27:14.204Z,2.67
2018-08-20T19:29:47.328Z,2.80
2018-08-20T19:32:14.958Z,2.53
2018-08-20T19:34:42.237Z,2.50
2018-08-20T19:37:09.560Z,2.97
2018-08-20T19:39:36.823Z,2.73
2018-08-20T19:42:04.701Z,1.90
2018-08-20T19:44:31.968Z,1.87
2018-08-20T19:46:59.272Z,2.07
2018-08-20T19:49:26.557Z,3.07
2018-08-20T19:51:53.895Z,1.93
2018-08-20T19:54:21.251Z,10.70
2018-08-20T19:56:49.119Z,9.70
2018-08-20T19:59:24.895Z,8.20
2018-08-20T20:01:52.547Z,3.13
2018-08-20T20:04:19.939Z,2.10
2018-08-20T20:06:47.997Z,1.80
2018-08-20T20:09:16.284Z,2.10
2018-08-20T20:11:46.258Z,2.20
2018-08-20T20:14:13.756Z,2.43
2018-08-20T20:16:46.651Z,1.93
2018-08-20T20:19:14.000Z,1.83
2018-08-20T20:21:41.420Z,2.20
2018-08-20T20:24:09.412Z,3.53
2018-08-20T20:26:36.751Z,2.97
2018-08-20T20:29:05.058Z,2.40
2018-08-20T20:31:32.393Z,2.30
2018-08-20T20:33:59.771Z,2.67
2018-08-20T20:36:29.240Z,2.53
2018-08-20T20:38:56.688Z,3.00
2018-08-20T20:41:24.095Z,3.00
2018-08-20T20:43:51.813Z,3.03
2018-08-20T20:46:19.215Z,2.10
2018-08-20T20:48:46.500Z,2.60
2018-08-20T20:51:13.852Z,2.03
2018-08-20T20:53:41.225Z,3.17
2018-08-20T20:57:33.076Z,2.47
2018-08-20T21:00:01.239Z,2.57
2018-08-20T21:02:45.487Z,2.70
2018-08-20T21:05:12.868Z,2.53
2018-08-20T21:07:40.214Z,2.77
2018-08-20T21:10:07.875Z,2.30
2018-08-20T21:12:35.202Z,2.30
2018-08-20T21:15:02.587Z,3.07
2018-08-20T21:17:32.408Z,2.53
2018-08-20T21:19:59.777Z,3.13
2018-08-20T21:22:27.170Z,3.93
2018-08-20T21:24:54.516Z,2.23
2018-08-20T21:27:25.757Z,3.07
2018-08-20T21:29:55.369Z,3.20
2018-08-20T21:32:22.818Z,2.80
2018-08-20T21:34:50.185Z,3.57
2018-08-20T21:37:17.489Z,2.73
2018-08-20T21:39:44.804Z,2.93
2018-08-20T21:42:12.113Z,3.40
2018-08-20T21:44:39.450Z,3.63
2018-08-20T21:47:19.622Z,2.77
2018-08-20T21:49:46.857Z,3.03
2018-08-20T21:52:14.200Z,3.20
2018-08-20T21:54:41.519Z,2.63
2018-08-20T21:57:08.839Z,3.23
2018-08-20T21:59:36.318Z,2.70
2018-08-20T22:02:03.647Z,2.63
2018-08-20T22:04:32.616Z,3.40
2018-08-20T22:06:59.939Z,3.43
2018-08-20T22:09:27.211Z,3.37
2018-08-20T22:11:55.856Z,2.70
2018-08-20T22:14:23.285Z,2.67
2018-08-20T22:16:50.606Z,3.20
2018-08-20T22:19:17.930Z,2.90
2018-08-20T22:21:45.336Z,2.90
2018-08-20T22:24:12.635Z,2.93
2018-08-20T22:26:44.960Z,3.07
2018-08-20T22:29:12.571Z,3.90
2018-08-20T22:31:44.477Z,3.20
2018-08-20T22:34:13.501Z,3.20
2018-08-20T22:36:40.901Z,2.90
2018-08-20T22:39:08.304Z,2.70
2018-08-20T22:41:35.558Z,3.10
2018-08-20T22:44:02.968Z,2.70
2018-08-20T22:46:30.222Z,3.20
2018-08-20T22:48:58.634Z,2.77
2018-08-20T22:51:27.988Z,3.07
2018-08-20T22:53:58.626Z,2.57
2018-08-20T22:56:29.230Z,2.90
2018-08-20T22:59:01.737Z,2.60
2018-08-20T23:01:29.232Z,3.80
2018-08-20T23:03:56.668Z,3.50
2018-08-20T23:06:24.267Z,3.47
2018-08-20T23:08:51.680Z,3.07
2018-08-20T23:11:40.853Z,2.73
2018-08-20T23:14:09.636Z,2.90
2018-08-20T23:16:37.247Z,3.00
2018-08-20T23:19:04.699Z,3.20
2018-08-20T23:21:37.323Z,3.57
2018-08-20T23:24:05.124Z,3.83
2018-08-20T23:26:32.476Z,3.30
2018-08-20T23:28:59.752Z,2.73
2018-08-20T23:31:27.047Z,2.50
2018-08-20T23:33:54.317Z,3.03
2018-08-20T23:36:21.603Z,2.90
2018-08-20T23:38:48.921Z,3.33
2018-08-20T23:41:16.154Z,3.33
2018-08-20T23:43:51.805Z,3.30
2018-08-20T23:46:44.049Z,3.00
2018-08-20T23:49:11.399Z,3.63
2018-08-20T23:51:38.754Z,3.30
2018-08-20T23:54:06.126Z,3.20
2018-08-20T23:56:33.480Z,3.93
2018-08-20T23:59:00.797Z,2.83
